Fame — V7PY5 — position and weather

sailwx.info

Track history (hours):
 
Tides and Currents Weather Stations Pressure Air Temp Water Temp Dewpoint Dewpoint Depression Visibility Wind Speed Wind Dir Waves Ship Positions

Fame

Last reported at 2017-Dec-07 06:34 UTC. Time now 2017-Dec-15 16:06 UTC.
Position N 23°48' E 122°38'.
Warning: this ship's position is 8 days out of date.

Length 225 m; draft 9.6 m.

Type: Cargo ship. MMSI: 538006678.

Date/timePositionNaut miles runAvg speedWind from/ knotsBaromVisibWave heightAir tempDewpointWater temp
2017-Dec-07 06:34N 23°48' E 122°38'111.7
2017-Dec-07 06:30N 23°48' E 122°38'611.2
2017-Dec-07 06:01N 23°54' E 122°37'611.0
2017-Dec-07 05:31N 23°59' E 122°37'510.3
2017-Dec-07 05:00N 24°04' E 122°38'510.5
2017-Dec-07 04:30N 24°10' E 122°39'510.7
2017-Dec-07 04:00N 24°14' E 122°42'510.3
2017-Dec-07 03:31N 24°19' E 122°44'510.1
2017-Dec-07 03:01N 24°24' E 122°45'510.3
2017-Dec-07 02:30N 24°29' E 122°47'510.7
2017-Dec-07 02:01N 24°34' E 122°49'510.7
2017-Dec-07 01:31N 24°39' E 122°50'611.3
2017-Dec-07 01:00N 24°45' E 122°52'611.5
2017-Dec-07 00:31N 24°50' E 122°54'611.6
2017-Dec-07 00:01N 24°55' E 122°56'611.6
2017-Dec-06 23:30N 25°01' E 122°58'612.1
2017-Dec-06 23:00N 25°07' E 123°00'612.4
2017-Dec-06 22:31N 25°13' E 123°02'612.4
2017-Dec-06 22:00N 25°19' E 123°05'  
Track history (hours):
 
Tides and Currents Weather Stations Pressure Air Temp Water Temp Dewpoint Dewpoint Depression Visibility Wind Speed Wind Dir Waves Ship Positions

Fame

Last reported at 2017-Dec-07 06:34 UTC. Time now 2017-Dec-15 16:06 UTC.
Position N 23°48' E 122°38'.
Warning: this ship's position is 8 days out of date.

Length 225 m; draft 9.6 m.

Type: Cargo ship. MMSI: 538006678.

Date/timePositionNaut miles runAvg speedWind from/ knotsBaromVisibWave heightAir tempDewpointWater temp
2017-Dec-07 06:34N 23°48' E 122°38'111.7
2017-Dec-07 06:30N 23°48' E 122°38'611.2
2017-Dec-07 06:01N 23°54' E 122°37'611.0
2017-Dec-07 05:31N 23°59' E 122°37'510.3
2017-Dec-07 05:00N 24°04' E 122°38'510.5
2017-Dec-07 04:30N 24°10' E 122°39'510.7
2017-Dec-07 04:00N 24°14' E 122°42'510.3
2017-Dec-07 03:31N 24°19' E 122°44'510.1
2017-Dec-07 03:01N 24°24' E 122°45'510.3
2017-Dec-07 02:30N 24°29' E 122°47'510.7
2017-Dec-07 02:01N 24°34' E 122°49'510.7
2017-Dec-07 01:31N 24°39' E 122°50'611.3
2017-Dec-07 01:00N 24°45' E 122°52'611.5
2017-Dec-07 00:31N 24°50' E 122°54'611.6
2017-Dec-07 00:01N 24°55' E 122°56'611.6
2017-Dec-06 23:30N 25°01' E 122°58'612.1
2017-Dec-06 23:00N 25°07' E 123°00'612.4
2017-Dec-06 22:31N 25°13' E 123°02'612.4
2017-Dec-06 22:00N 25°19' E 123°05'  

Dump ship's entire track history